Главная страница
METAR-TAF:

METAR-TAF

Аэропорты :

Кривой Рог, Украина

широта: 48-03N, долгота: 033-13-12E, высота над уровнем моря: 124 м

Текущие метеонаблюдения

Эта сводка был подготовлена 30 минут назад, в 06:30 UTC
Ветер 10 Узел от восточный, изменяющийся между северо-северо-восточный и юго-восточный
Температура -2°C
Влажность 80%
Давление 1030 hPa
Видимость: 9000 м
Сплошная облачность на высоте 900 фута

METAR: UKDR 160630Z 08005MPS 030V130 9000 OVC009 M02/M05 Q1030 R36/09//60 NOSIG

Время: 09:00 (07:00 UTC)

Прогноз

Эта сводка был подготовлена 1 час и 54 минут назад, в 05:06 UTC
Прогноз действительный с 16-го 06 UTC до 17-го 06 UTC
Ветер 10 Узел от восточный с порывами до 19 Узел
Видимость 10 км и более
Сплошная облачность на высоте 1100 фута
временами
С 16-го 06 UTC до 16-го 09 UTC
Видимость: 2500 м
Сплошная облачность на высоте 700 фута
дымка

TAF: UKDR 160506Z 1606/1706 08005G10MPS 9999 OVC011 TXM02/1612Z TNM06/1704Z TEMPO 1606/1609 2500 BR OVC007

Метеонаблюдения и прогнозы для более 4000 аэропортов (сводки METAR и TAF).

Имеющиеся станции представлены на карте желтыми и красными точками.

Чтобы увидеть название станции, наведите на нее мышь.

Затем щелкните, чтобы увидеть метеонаблюдения и метеопрогнозы.

Управление картой: чтобы увеличить масштаб, щелкните зеленые кнопки с черным крестиком; чтобы уменьшить масштаб, щелкните зеленую кнопку с тире; для просмотра соседних карт щелкайте зеленые стрелки.


METAR-TAF: